KTA weather

Karratha Airport
Karratha, Western Australia, Australia

Public forecast

Using degrees Celsius for public forecast. Weather courtesy of forecast.io.

METAR (pilot weather report)

Closest report is Barrow Island Airport, 77.3 nm (143.1 km) W. Retrieved 2017/05/25 12:00 UTC (6 minutes ago):

YBWX 251200Z AUTO 33006KT //// // ////// 24/18 Q1015

TAF (pilot weather forecast)

Closest forecast is Port Hedland International Airport, 106.1 nm (196.5 km) E. Retrieved 2017/05/25 12:36 UTC (0 seconds ago):

TAF YPPD 251116Z 2512/2612 27006KT CAVOK FM252000 13006KT CAVOK FM260500 05010KT CAVOK